sensor_id;sensor_type;location;lat;lon;timestamp;temperature;humidity
40434;DHT22;26146;51.114;5.654;2022-10-31T00:00:09;15.40;99.90
40434;DHT22;26146;51.114;5.654;2022-10-31T00:04:10;15.30;99.90
40434;DHT22;26146;51.114;5.654;2022-10-31T00:08:11;15.20;99.90
40434;DHT22;26146;51.114;5.654;2022-10-31T00:12:12;15.40;99.90
40434;DHT22;26146;51.114;5.654;2022-10-31T00:16:17;15.40;99.90
40434;DHT22;26146;51.114;5.654;2022-10-31T00:20:18;15.40;99.90
40434;DHT22;26146;51.114;5.654;2022-10-31T00:24:19;15.40;99.90
40434;DHT22;26146;51.114;5.654;2022-10-31T00:28:20;15.30;99.90
40434;DHT22;26146;51.114;5.654;2022-10-31T00:32:21;15.40;99.90
40434;DHT22;26146;51.114;5.654;2022-10-31T00:36:22;15.40;99.90
40434;DHT22;26146;51.114;5.654;2022-10-31T00:40:23;15.40;99.90
40434;DHT22;26146;51.114;5.654;2022-10-31T00:44:24;15.60;99.90
40434;DHT22;26146;51.114;5.654;2022-10-31T00:48:25;15.60;99.90
40434;DHT22;26146;51.114;5.654;2022-10-31T00:52:26;15.50;99.90
40434;DHT22;26146;51.114;5.654;2022-10-31T00:56:27;15.50;99.90
40434;DHT22;26146;51.114;5.654;2022-10-31T01:00:28;15.50;99.90
40434;DHT22;26146;51.114;5.654;2022-10-31T01:04:29;15.40;99.90
40434;DHT22;26146;51.114;5.654;2022-10-31T01:08:30;15.40;99.90
40434;DHT22;26146;51.114;5.654;2022-10-31T01:12:39;15.40;99.90
40434;DHT22;26146;51.114;5.654;2022-10-31T01:16:40;15.40;99.90
40434;DHT22;26146;51.114;5.654;2022-10-31T01:20:41;15.30;99.90
40434;DHT22;26146;51.114;5.654;2022-10-31T01:24:42;15.50;99.90
40434;DHT22;26146;51.114;5.654;2022-10-31T01:28:46;15.50;99.90
40434;DHT22;26146;51.114;5.654;2022-10-31T01:32:47;15.60;99.90
40434;DHT22;26146;51.114;5.654;2022-10-31T01:36:51;15.50;99.90
40434;DHT22;26146;51.114;5.654;2022-10-31T01:40:53;15.50;99.90
40434;DHT22;26146;51.114;5.654;2022-10-31T01:44:59;15.50;99.90
40434;DHT22;26146;51.114;5.654;2022-10-31T01:49:03;15.50;99.90
40434;DHT22;26146;51.114;5.654;2022-10-31T01:53:06;15.40;99.90
40434;DHT22;26146;51.114;5.654;2022-10-31T01:57:10;15.50;99.90
40434;DHT22;26146;51.114;5.654;2022-10-31T02:01:14;15.50;99.90
40434;DHT22;26146;51.114;5.654;2022-10-31T02:05:22;15.40;99.90
40434;DHT22;26146;51.114;5.654;2022-10-31T02:09:25;15.30;99.90
40434;DHT22;26146;51.114;5.654;2022-10-31T02:13:28;15.20;99.90
40434;DHT22;26146;51.114;5.654;2022-10-31T02:17:30;15.10;99.90
40434;DHT22;26146;51.114;5.654;2022-10-31T02:21:49;15.00;99.90
40434;DHT22;26146;51.114;5.654;2022-10-31T02:26:26;15.00;99.90
40434;DHT22;26146;51.114;5.654;2022-10-31T02:39:25;14.80;99.90
40434;DHT22;26146;51.114;5.654;2022-10-31T02:43:40;14.70;99.90
40434;DHT22;26146;51.114;5.654;2022-10-31T02:47:44;14.70;99.90
40434;DHT22;26146;51.114;5.654;2022-10-31T02:51:49;14.70;99.90
40434;DHT22;26146;51.114;5.654;2022-10-31T02:55:56;14.80;99.90
40434;DHT22;26146;51.114;5.654;2022-10-31T03:00:04;14.80;99.90
40434;DHT22;26146;51.114;5.654;2022-10-31T03:08:42;14.80;99.90
40434;DHT22;26146;51.114;5.654;2022-10-31T03:12:50;14.70;99.90
40434;DHT22;26146;51.114;5.654;2022-10-31T03:16:59;14.80;99.90
40434;DHT22;26146;51.114;5.654;2022-10-31T03:21:14;14.80;99.90
40434;DHT22;26146;51.114;5.654;2022-10-31T03:25:17;14.80;99.90
40434;DHT22;26146;51.114;5.654;2022-10-31T03:29:22;14.70;99.90
40434;DHT22;26146;51.114;5.654;2022-10-31T03:33:28;14.60;99.90
40434;DHT22;26146;51.114;5.654;2022-10-31T03:37:32;14.50;99.90
40434;DHT22;26146;51.114;5.654;2022-10-31T03:41:39;14.50;99.90
40434;DHT22;26146;51.114;5.654;2022-10-31T03:45:47;14.50;99.90
40434;DHT22;26146;51.114;5.654;2022-10-31T03:49:48;14.60;99.90
40434;DHT22;26146;51.114;5.654;2022-10-31T03:58:09;14.40;99.90
40434;DHT22;26146;51.114;5.654;2022-10-31T04:02:16;14.40;99.90
40434;DHT22;26146;51.114;5.654;2022-10-31T04:06:19;14.30;99.90
40434;DHT22;26146;51.114;5.654;2022-10-31T04:10:23;14.30;99.90
40434;DHT22;26146;51.114;5.654;2022-10-31T04:14:29;14.20;99.90
40434;DHT22;26146;51.114;5.654;2022-10-31T04:18:31;14.20;99.90
40434;DHT22;26146;51.114;5.654;2022-10-31T04:22:32;14.10;99.90
40434;DHT22;26146;51.114;5.654;2022-10-31T04:26:33;14.00;99.90
40434;DHT22;26146;51.114;5.654;2022-10-31T04:30:34;14.00;99.90
40434;DHT22;26146;51.114;5.654;2022-10-31T04:34:35;13.90;99.90
40434;DHT22;26146;51.114;5.654;2022-10-31T04:38:36;14.10;99.90
40434;DHT22;26146;51.114;5.654;2022-10-31T04:42:37;14.10;99.90
40434;DHT22;26146;51.114;5.654;2022-10-31T04:46:40;14.00;99.90
40434;DHT22;26146;51.114;5.654;2022-10-31T04:50:43;13.90;99.90
40434;DHT22;26146;51.114;5.654;2022-10-31T04:54:44;13.90;99.90
40434;DHT22;26146;51.114;5.654;2022-10-31T04:58:45;13.90;99.90
40434;DHT22;26146;51.114;5.654;2022-10-31T05:02:59;13.90;99.90
40434;DHT22;26146;51.114;5.654;2022-10-31T05:06:59;13.80;99.90
40434;DHT22;26146;51.114;5.654;2022-10-31T05:11:02;13.70;99.90
40434;DHT22;26146;51.114;5.654;2022-10-31T05:15:04;13.70;99.90
40434;DHT22;26146;51.114;5.654;2022-10-31T05:19:05;13.60;99.90
40434;DHT22;26146;51.114;5.654;2022-10-31T05:23:06;13.50;99.90
40434;DHT22;26146;51.114;5.654;2022-10-31T05:27:07;13.40;99.90
40434;DHT22;26146;51.114;5.654;2022-10-31T05:31:08;13.40;99.90
40434;DHT22;26146;51.114;5.654;2022-10-31T05:35:12;13.20;99.90
40434;DHT22;26146;51.114;5.654;2022-10-31T05:39:13;13.20;99.90
40434;DHT22;26146;51.114;5.654;2022-10-31T05:43:14;13.10;99.90
40434;DHT22;26146;51.114;5.654;2022-10-31T05:47:15;13.20;99.90
40434;DHT22;26146;51.114;5.654;2022-10-31T05:51:16;13.10;99.90
40434;DHT22;26146;51.114;5.654;2022-10-31T05:55:17;13.10;99.90
40434;DHT22;26146;51.114;5.654;2022-10-31T05:59:18;13.10;99.90
40434;DHT22;26146;51.114;5.654;2022-10-31T06:03:19;13.20;99.90
40434;DHT22;26146;51.114;5.654;2022-10-31T06:07:20;13.10;99.90
40434;DHT22;26146;51.114;5.654;2022-10-31T06:11:20;13.10;99.90
40434;DHT22;26146;51.114;5.654;2022-10-31T06:15:24;13.10;99.90
40434;DHT22;26146;51.114;5.654;2022-10-31T06:19:34;13.20;99.90
40434;DHT22;26146;51.114;5.654;2022-10-31T06:23:35;13.20;99.90
40434;DHT22;26146;51.114;5.654;2022-10-31T06:27:36;13.20;99.90
40434;DHT22;26146;51.114;5.654;2022-10-31T06:31:37;13.20;99.90
40434;DHT22;26146;51.114;5.654;2022-10-31T06:35:38;13.30;99.90
40434;DHT22;26146;51.114;5.654;2022-10-31T06:39:39;13.30;99.90
40434;DHT22;26146;51.114;5.654;2022-10-31T06:43:40;13.20;99.90
40434;DHT22;26146;51.114;5.654;2022-10-31T06:47:40;13.20;99.90
40434;DHT22;26146;51.114;5.654;2022-10-31T06:51:42;13.10;99.90
40434;DHT22;26146;51.114;5.654;2022-10-31T06:55:43;13.20;99.90
40434;DHT22;26146;51.114;5.654;2022-10-31T06:59:44;13.10;99.90
40434;DHT22;26146;51.114;5.654;2022-10-31T07:03:45;13.20;99.90
40434;DHT22;26146;51.114;5.654;2022-10-31T07:07:46;13.20;99.90
40434;DHT22;26146;51.114;5.654;2022-10-31T07:11:47;13.20;99.90
40434;DHT22;26146;51.114;5.654;2022-10-31T07:15:48;13.20;99.90
40434;DHT22;26146;51.114;5.654;2022-10-31T07:19:48;13.20;99.90
40434;DHT22;26146;51.114;5.654;2022-10-31T07:23:50;13.20;99.90
40434;DHT22;26146;51.114;5.654;2022-10-31T07:27:51;13.30;99.90
40434;DHT22;26146;51.114;5.654;2022-10-31T07:31:52;13.30;99.90
40434;DHT22;26146;51.114;5.654;2022-10-31T07:35:54;13.40;99.90
40434;DHT22;26146;51.114;5.654;2022-10-31T07:39:57;13.40;99.90
40434;DHT22;26146;51.114;5.654;2022-10-31T07:43:57;13.50;99.90
40434;DHT22;26146;51.114;5.654;2022-10-31T07:47:58;13.50;99.90
40434;DHT22;26146;51.114;5.654;2022-10-31T07:51:59;13.50;99.90
40434;DHT22;26146;51.114;5.654;2022-10-31T07:56:00;13.60;99.90
40434;DHT22;26146;51.114;5.654;2022-10-31T08:00:01;13.60;99.90
40434;DHT22;26146;51.114;5.654;2022-10-31T08:04:03;13.80;99.90
40434;DHT22;26146;51.114;5.654;2022-10-31T08:08:05;14.00;99.90
40434;DHT22;26146;51.114;5.654;2022-10-31T08:12:06;14.20;99.90
40434;DHT22;26146;51.114;5.654;2022-10-31T08:16:07;14.50;99.90
40434;DHT22;26146;51.114;5.654;2022-10-31T08:20:08;14.50;99.90
40434;DHT22;26146;51.114;5.654;2022-10-31T08:24:09;14.60;99.90
40434;DHT22;26146;51.114;5.654;2022-10-31T08:28:11;14.70;99.90
40434;DHT22;26146;51.114;5.654;2022-10-31T08:32:12;15.00;99.90
40434;DHT22;26146;51.114;5.654;2022-10-31T08:36:13;15.20;99.90
40434;DHT22;26146;51.114;5.654;2022-10-31T08:40:14;15.10;99.90
40434;DHT22;26146;51.114;5.654;2022-10-31T08:44:15;15.10;99.90
40434;DHT22;26146;51.114;5.654;2022-10-31T08:48:17;15.30;99.90
40434;DHT22;26146;51.114;5.654;2022-10-31T08:52:18;15.40;99.90
40434;DHT22;26146;51.114;5.654;2022-10-31T08:56:19;15.60;99.90
40434;DHT22;26146;51.114;5.654;2022-10-31T09:00:19;15.80;99.90
40434;DHT22;26146;51.114;5.654;2022-10-31T09:04:20;16.00;99.90
40434;DHT22;26146;51.114;5.654;2022-10-31T09:08:21;16.00;99.90
40434;DHT22;26146;51.114;5.654;2022-10-31T09:12:22;16.20;99.90
40434;DHT22;26146;51.114;5.654;2022-10-31T09:16:24;16.20;99.90
40434;DHT22;26146;51.114;5.654;2022-10-31T09:20:25;16.30;99.90
40434;DHT22;26146;51.114;5.654;2022-10-31T09:24:26;16.50;99.90
40434;DHT22;26146;51.114;5.654;2022-10-31T09:28:27;16.90;99.90
40434;DHT22;26146;51.114;5.654;2022-10-31T09:32:28;17.10;99.90
40434;DHT22;26146;51.114;5.654;2022-10-31T09:36:29;17.40;99.90
40434;DHT22;26146;51.114;5.654;2022-10-31T09:40:36;17.30;99.90
40434;DHT22;26146;51.114;5.654;2022-10-31T09:53:24;17.30;99.90
40434;DHT22;26146;51.114;5.654;2022-10-31T09:57:35;17.60;99.90
40434;DHT22;26146;51.114;5.654;2022-10-31T10:05:46;17.80;99.90
40434;DHT22;26146;51.114;5.654;2022-10-31T10:09:54;17.70;99.90
40434;DHT22;26146;51.114;5.654;2022-10-31T10:13:57;17.50;99.90
40434;DHT22;26146;51.114;5.654;2022-10-31T10:18:12;17.20;99.90
40434;DHT22;26146;51.114;5.654;2022-10-31T10:31:34;17.80;99.90
40434;DHT22;26146;51.114;5.654;2022-10-31T10:36:00;18.10;99.90
40434;DHT22;26146;51.114;5.654;2022-10-31T10:40:19;18.10;99.90
40434;DHT22;26146;51.114;5.654;2022-10-31T10:44:20;18.40;99.90
40434;DHT22;26146;51.114;5.654;2022-10-31T10:48:36;18.60;99.90
40434;DHT22;26146;51.114;5.654;2022-10-31T10:52:54;18.80;99.90
40434;DHT22;26146;51.114;5.654;2022-10-31T10:57:30;18.80;99.90
40434;DHT22;26146;51.114;5.654;2022-10-31T11:01:33;18.60;99.90
40434;DHT22;26146;51.114;5.654;2022-10-31T11:09:41;18.50;99.90
40434;DHT22;26146;51.114;5.654;2022-10-31T11:13:45;18.50;99.90
40434;DHT22;26146;51.114;5.654;2022-10-31T11:17:50;18.50;99.90
40434;DHT22;26146;51.114;5.654;2022-10-31T11:21:52;18.70;99.90
40434;DHT22;26146;51.114;5.654;2022-10-31T11:26:16;18.80;99.90
40434;DHT22;26146;51.114;5.654;2022-10-31T11:30:19;18.70;99.90
40434;DHT22;26146;51.114;5.654;2022-10-31T11:34:33;18.60;99.90
40434;DHT22;26146;51.114;5.654;2022-10-31T11:38:42;18.40;99.90
40434;DHT22;26146;51.114;5.654;2022-10-31T11:42:44;18.60;99.90
40434;DHT22;26146;51.114;5.654;2022-10-31T11:50:55;18.40;99.90
40434;DHT22;26146;51.114;5.654;2022-10-31T11:55:30;18.50;99.90
40434;DHT22;26146;51.114;5.654;2022-10-31T11:59:32;18.60;99.90
40434;DHT22;26146;51.114;5.654;2022-10-31T12:03:54;18.60;99.90
40434;DHT22;26146;51.114;5.654;2022-10-31T12:08:00;18.80;99.90
40434;DHT22;26146;51.114;5.654;2022-10-31T12:16:50;18.80;99.90
40434;DHT22;26146;51.114;5.654;2022-10-31T12:21:15;19.00;99.90
40434;DHT22;26146;51.114;5.654;2022-10-31T12:50:56;19.30;99.90
40434;DHT22;26146;51.114;5.654;2022-10-31T13:08:59;19.50;99.90
40434;DHT22;26146;51.114;5.654;2022-10-31T13:13:07;19.50;99.90
40434;DHT22;26146;51.114;5.654;2022-10-31T13:17:28;19.70;99.90
40434;DHT22;26146;51.114;5.654;2022-10-31T13:21:36;19.60;99.90
40434;DHT22;26146;51.114;5.654;2022-10-31T13:25:47;19.30;99.90
40434;DHT22;26146;51.114;5.654;2022-10-31T13:30:05;19.40;99.90
40434;DHT22;26146;51.114;5.654;2022-10-31T13:34:27;19.40;99.90
40434;DHT22;26146;51.114;5.654;2022-10-31T13:42:49;19.50;99.90
40434;DHT22;26146;51.114;5.654;2022-10-31T13:46:53;19.40;99.90
40434;DHT22;26146;51.114;5.654;2022-10-31T13:51:00;19.50;99.90
40434;DHT22;26146;51.114;5.654;2022-10-31T13:55:39;19.40;99.90
40434;DHT22;26146;51.114;5.654;2022-10-31T13:59:53;19.50;99.90
40434;DHT22;26146;51.114;5.654;2022-10-31T14:04:07;19.40;99.90
40434;DHT22;26146;51.114;5.654;2022-10-31T14:08:20;19.40;99.90
40434;DHT22;26146;51.114;5.654;2022-10-31T14:12:38;19.50;99.90
40434;DHT22;26146;51.114;5.654;2022-10-31T14:16:43;19.30;99.90
40434;DHT22;26146;51.114;5.654;2022-10-31T14:20:47;19.10;99.90
40434;DHT22;26146;51.114;5.654;2022-10-31T14:24:48;19.20;99.90
40434;DHT22;26146;51.114;5.654;2022-10-31T14:28:50;19.10;99.90
40434;DHT22;26146;51.114;5.654;2022-10-31T14:38:01;19.10;99.90
40434;DHT22;26146;51.114;5.654;2022-10-31T14:42:14;19.00;99.90
40434;DHT22;26146;51.114;5.654;2022-10-31T14:46:50;19.00;99.90
40434;DHT22;26146;51.114;5.654;2022-10-31T14:50:58;18.90;99.90
40434;DHT22;26146;51.114;5.654;2022-10-31T14:55:00;18.80;99.90
40434;DHT22;26146;51.114;5.654;2022-10-31T14:59:07;18.80;99.90
40434;DHT22;26146;51.114;5.654;2022-10-31T15:03:18;18.80;99.90
40434;DHT22;26146;51.114;5.654;2022-10-31T15:07:24;18.80;99.90
40434;DHT22;26146;51.114;5.654;2022-10-31T15:11:26;18.70;99.90
40434;DHT22;26146;51.114;5.654;2022-10-31T15:15:28;18.70;99.90
40434;DHT22;26146;51.114;5.654;2022-10-31T15:19:30;18.60;99.90
40434;DHT22;26146;51.114;5.654;2022-10-31T15:23:33;18.50;99.90
40434;DHT22;26146;51.114;5.654;2022-10-31T15:27:34;18.60;99.90
40434;DHT22;26146;51.114;5.654;2022-10-31T15:31:37;18.40;99.90
40434;DHT22;26146;51.114;5.654;2022-10-31T15:35:38;18.40;99.90
40434;DHT22;26146;51.114;5.654;2022-10-31T15:39:39;18.50;99.90
40434;DHT22;26146;51.114;5.654;2022-10-31T15:43:44;18.40;99.90
40434;DHT22;26146;51.114;5.654;2022-10-31T15:48:02;18.20;99.90
40434;DHT22;26146;51.114;5.654;2022-10-31T15:56:10;17.90;99.90
40434;DHT22;26146;51.114;5.654;2022-10-31T16:00:34;17.80;99.90
40434;DHT22;26146;51.114;5.654;2022-10-31T16:04:35;17.80;99.90
40434;DHT22;26146;51.114;5.654;2022-10-31T16:08:50;17.90;99.90
40434;DHT22;26146;51.114;5.654;2022-10-31T16:12:52;17.60;99.90
40434;DHT22;26146;51.114;5.654;2022-10-31T16:16:57;17.60;99.90
40434;DHT22;26146;51.114;5.654;2022-10-31T16:20:58;17.50;99.90
40434;DHT22;26146;51.114;5.654;2022-10-31T16:25:13;17.40;99.90
40434;DHT22;26146;51.114;5.654;2022-10-31T16:29:25;17.30;99.90
40434;DHT22;26146;51.114;5.654;2022-10-31T16:33:31;17.30;99.90
40434;DHT22;26146;51.114;5.654;2022-10-31T16:37:41;17.30;99.90
40434;DHT22;26146;51.114;5.654;2022-10-31T16:41:44;17.30;99.90
40434;DHT22;26146;51.114;5.654;2022-10-31T16:45:52;17.30;99.90
40434;DHT22;26146;51.114;5.654;2022-10-31T16:49:53;17.30;99.90
40434;DHT22;26146;51.114;5.654;2022-10-31T16:53:55;17.50;99.90
40434;DHT22;26146;51.114;5.654;2022-10-31T16:57:57;17.20;99.90
40434;DHT22;26146;51.114;5.654;2022-10-31T17:01:58;17.30;99.90
40434;DHT22;26146;51.114;5.654;2022-10-31T17:06:00;17.20;99.90
40434;DHT22;26146;51.114;5.654;2022-10-31T17:10:01;17.00;99.90
40434;DHT22;26146;51.114;5.654;2022-10-31T17:14:03;16.90;99.90
40434;DHT22;26146;51.114;5.654;2022-10-31T17:18:04;16.90;99.90
40434;DHT22;26146;51.114;5.654;2022-10-31T17:22:07;16.70;99.90
40434;DHT22;26146;51.114;5.654;2022-10-31T17:26:09;16.60;99.90
40434;DHT22;26146;51.114;5.654;2022-10-31T17:30:12;16.60;99.90
40434;DHT22;26146;51.114;5.654;2022-10-31T17:34:15;16.50;99.90
40434;DHT22;26146;51.114;5.654;2022-10-31T17:38:18;16.20;99.90
40434;DHT22;26146;51.114;5.654;2022-10-31T17:42:19;16.30;99.90
40434;DHT22;26146;51.114;5.654;2022-10-31T17:46:20;16.20;99.90
40434;DHT22;26146;51.114;5.654;2022-10-31T17:50:25;16.10;99.90
40434;DHT22;26146;51.114;5.654;2022-10-31T17:54:29;16.10;99.90
40434;DHT22;26146;51.114;5.654;2022-10-31T17:58:30;16.20;99.90
40434;DHT22;26146;51.114;5.654;2022-10-31T18:02:31;16.10;99.90
40434;DHT22;26146;51.114;5.654;2022-10-31T18:06:32;16.10;99.90
40434;DHT22;26146;51.114;5.654;2022-10-31T18:10:51;16.00;99.90
40434;DHT22;26146;51.114;5.654;2022-10-31T18:15:03;16.10;99.90
40434;DHT22;26146;51.114;5.654;2022-10-31T18:19:04;16.00;99.90
40434;DHT22;26146;51.114;5.654;2022-10-31T18:23:06;16.00;99.90
40434;DHT22;26146;51.114;5.654;2022-10-31T18:27:07;15.90;99.90
40434;DHT22;26146;51.114;5.654;2022-10-31T18:31:08;15.80;99.90
40434;DHT22;26146;51.114;5.654;2022-10-31T18:35:09;15.70;99.90
40434;DHT22;26146;51.114;5.654;2022-10-31T18:39:11;15.70;99.90
40434;DHT22;26146;51.114;5.654;2022-10-31T18:43:14;15.50;99.90
40434;DHT22;26146;51.114;5.654;2022-10-31T18:47:15;15.50;99.90
40434;DHT22;26146;51.114;5.654;2022-10-31T18:51:18;15.40;99.90
40434;DHT22;26146;51.114;5.654;2022-10-31T18:55:19;15.40;99.90
40434;DHT22;26146;51.114;5.654;2022-10-31T18:59:20;15.40;99.90
40434;DHT22;26146;51.114;5.654;2022-10-31T19:03:24;15.50;99.90
40434;DHT22;26146;51.114;5.654;2022-10-31T19:07:25;15.40;99.90
40434;DHT22;26146;51.114;5.654;2022-10-31T19:11:26;15.20;99.90
40434;DHT22;26146;51.114;5.654;2022-10-31T19:15:27;15.10;99.90
40434;DHT22;26146;51.114;5.654;2022-10-31T19:19:28;15.10;99.90
40434;DHT22;26146;51.114;5.654;2022-10-31T19:23:29;14.90;99.90
40434;DHT22;26146;51.114;5.654;2022-10-31T19:27:30;15.00;99.90
40434;DHT22;26146;51.114;5.654;2022-10-31T19:31:31;14.90;99.90
40434;DHT22;26146;51.114;5.654;2022-10-31T19:35:34;15.00;99.90
40434;DHT22;26146;51.114;5.654;2022-10-31T19:39:35;15.00;99.90
40434;DHT22;26146;51.114;5.654;2022-10-31T19:43:37;14.90;99.90
40434;DHT22;26146;51.114;5.654;2022-10-31T19:47:38;14.80;99.90
40434;DHT22;26146;51.114;5.654;2022-10-31T19:51:39;14.80;99.90
40434;DHT22;26146;51.114;5.654;2022-10-31T19:55:40;14.80;99.90
40434;DHT22;26146;51.114;5.654;2022-10-31T19:59:42;14.90;99.90
40434;DHT22;26146;51.114;5.654;2022-10-31T20:03:44;15.00;99.90
40434;DHT22;26146;51.114;5.654;2022-10-31T20:07:47;15.00;99.90
40434;DHT22;26146;51.114;5.654;2022-10-31T20:11:48;15.20;99.90
40434;DHT22;26146;51.114;5.654;2022-10-31T20:15:49;15.30;99.90
40434;DHT22;26146;51.114;5.654;2022-10-31T20:19:51;15.40;99.90
40434;DHT22;26146;51.114;5.654;2022-10-31T20:23:57;15.40;99.90
40434;DHT22;26146;51.114;5.654;2022-10-31T20:27:58;15.70;99.90
40434;DHT22;26146;51.114;5.654;2022-10-31T20:31:59;15.80;99.90
40434;DHT22;26146;51.114;5.654;2022-10-31T20:36:03;15.80;99.90
40434;DHT22;26146;51.114;5.654;2022-10-31T20:40:04;16.10;99.90
40434;DHT22;26146;51.114;5.654;2022-10-31T20:44:07;16.30;99.90
40434;DHT22;26146;51.114;5.654;2022-10-31T20:48:11;16.30;99.90
40434;DHT22;26146;51.114;5.654;2022-10-31T20:52:12;16.20;99.90
40434;DHT22;26146;51.114;5.654;2022-10-31T20:56:15;16.30;99.90
40434;DHT22;26146;51.114;5.654;2022-10-31T21:00:17;16.30;99.90
40434;DHT22;26146;51.114;5.654;2022-10-31T21:04:18;16.30;99.90
40434;DHT22;26146;51.114;5.654;2022-10-31T21:08:18;16.30;99.90
40434;DHT22;26146;51.114;5.654;2022-10-31T21:12:19;16.30;99.90
40434;DHT22;26146;51.114;5.654;2022-10-31T21:16:29;16.40;99.90
40434;DHT22;26146;51.114;5.654;2022-10-31T21:20:30;16.70;99.90
40434;DHT22;26146;51.114;5.654;2022-10-31T21:24:31;16.60;99.90
40434;DHT22;26146;51.114;5.654;2022-10-31T21:28:32;16.70;99.90
40434;DHT22;26146;51.114;5.654;2022-10-31T21:32:36;16.70;99.90
40434;DHT22;26146;51.114;5.654;2022-10-31T21:36:38;16.80;99.90
40434;DHT22;26146;51.114;5.654;2022-10-31T21:40:39;17.00;99.90
40434;DHT22;26146;51.114;5.654;2022-10-31T21:44:40;17.10;99.90
40434;DHT22;26146;51.114;5.654;2022-10-31T21:48:41;17.10;99.90
40434;DHT22;26146;51.114;5.654;2022-10-31T21:52:43;17.10;99.90
40434;DHT22;26146;51.114;5.654;2022-10-31T21:56:44;17.10;99.90
40434;DHT22;26146;51.114;5.654;2022-10-31T22:00:45;17.20;99.90
40434;DHT22;26146;51.114;5.654;2022-10-31T22:04:46;17.20;99.90
40434;DHT22;26146;51.114;5.654;2022-10-31T22:08:49;17.10;99.90
40434;DHT22;26146;51.114;5.654;2022-10-31T22:12:50;17.10;99.90
40434;DHT22;26146;51.114;5.654;2022-10-31T22:16:51;17.20;99.90
40434;DHT22;26146;51.114;5.654;2022-10-31T22:20:52;17.30;99.90
40434;DHT22;26146;51.114;5.654;2022-10-31T22:24:53;17.30;99.90
40434;DHT22;26146;51.114;5.654;2022-10-31T22:28:55;17.30;99.90
40434;DHT22;26146;51.114;5.654;2022-10-31T22:32:59;17.30;99.90
40434;DHT22;26146;51.114;5.654;2022-10-31T22:36:59;17.30;99.90
40434;DHT22;26146;51.114;5.654;2022-10-31T22:41:01;17.30;99.90
40434;DHT22;26146;51.114;5.654;2022-10-31T22:45:03;17.30;99.90
40434;DHT22;26146;51.114;5.654;2022-10-31T22:49:07;17.40;99.90
40434;DHT22;26146;51.114;5.654;2022-10-31T22:53:08;17.40;99.90
40434;DHT22;26146;51.114;5.654;2022-10-31T22:57:11;17.40;99.90
40434;DHT22;26146;51.114;5.654;2022-10-31T23:01:20;17.60;99.90
40434;DHT22;26146;51.114;5.654;2022-10-31T23:05:21;17.60;99.90
40434;DHT22;26146;51.114;5.654;2022-10-31T23:09:22;17.70;99.90
40434;DHT22;26146;51.114;5.654;2022-10-31T23:13:23;17.70;99.90
40434;DHT22;26146;51.114;5.654;2022-10-31T23:17:45;17.80;99.90
40434;DHT22;26146;51.114;5.654;2022-10-31T23:21:48;17.90;99.90
40434;DHT22;26146;51.114;5.654;2022-10-31T23:26:02;17.90;99.90
40434;DHT22;26146;51.114;5.654;2022-10-31T23:30:22;17.90;99.90
40434;DHT22;26146;51.114;5.654;2022-10-31T23:34:25;17.90;99.90
40434;DHT22;26146;51.114;5.654;2022-10-31T23:38:27;17.90;99.90
40434;DHT22;26146;51.114;5.654;2022-10-31T23:42:28;18.00;99.90
40434;DHT22;26146;51.114;5.654;2022-10-31T23:46:28;18.00;99.90
40434;DHT22;26146;51.114;5.654;2022-10-31T23:50:29;18.00;99.90
40434;DHT22;26146;51.114;5.654;2022-10-31T23:54:31;17.80;99.90
40434;DHT22;26146;51.114;5.654;2022-10-31T23:58:32;17.80;99.90
